createdAt,value
2018-07-19T00:00:20.309Z,100.00
2018-07-19T00:01:47.936Z,100.00
2018-07-19T00:03:15.155Z,100.00
2018-07-19T00:04:46.480Z,100.00
2018-07-19T00:06:10.049Z,100.00
2018-07-19T00:07:37.398Z,100.00
2018-07-19T00:09:08.509Z,100.00
2018-07-19T00:10:36.124Z,100.00
2018-07-19T00:11:59.181Z,100.00
2018-07-19T00:13:30.551Z,100.00
2018-07-19T00:14:53.972Z,100.00
2018-07-19T00:16:25.481Z,100.00
2018-07-19T00:17:48.750Z,100.00
2018-07-19T00:19:16.276Z,100.00
2018-07-19T00:20:44.808Z,100.00
2018-07-19T00:22:11.368Z,100.00
2018-07-19T00:23:42.803Z,100.00
2018-07-19T00:25:10.418Z,100.00
2018-07-19T00:26:37.880Z,100.00
2018-07-19T00:28:05.449Z,100.00
2018-07-19T00:29:28.786Z,100.00
2018-07-19T00:31:00.359Z,100.00
2018-07-19T00:32:27.319Z,100.00
2018-07-19T00:33:54.635Z,100.00
2018-07-19T00:35:17.783Z,100.00
2018-07-19T00:36:45.163Z,100.00
2018-07-19T00:38:16.353Z,100.00
2018-07-19T00:39:43.956Z,100.00
2018-07-19T00:41:07.461Z,100.00
2018-07-19T00:42:38.878Z,100.00
2018-07-19T00:44:06.113Z,100.00
2018-07-19T00:45:29.294Z,100.00
2018-07-19T00:47:00.653Z,100.00
2018-07-19T00:48:23.945Z,100.00
2018-07-19T00:49:51.306Z,100.00
2018-07-19T00:51:22.757Z,100.00
2018-07-19T00:52:46.248Z,100.00
2018-07-19T00:54:17.575Z,100.00
2018-07-19T00:55:40.697Z,100.00
2018-07-19T00:57:08.212Z,100.00
2018-07-19T00:58:35.826Z,100.00
2018-07-19T01:00:02.917Z,100.00
2018-07-19T01:01:30.461Z,100.00
2018-07-19T01:03:01.680Z,100.00
2018-07-19T01:04:25.054Z,100.00
2018-07-19T01:05:52.563Z,100.00
2018-07-19T01:07:20.034Z,100.00
2018-07-19T01:08:47.317Z,100.00
2018-07-19T01:10:18.692Z,100.00
2018-07-19T01:11:46.156Z,100.00
2018-07-19T01:13:13.515Z,100.00
2018-07-19T01:14:36.501Z,100.00
2018-07-19T01:16:07.740Z,100.00
2018-07-19T01:17:31.207Z,100.00
2018-07-19T01:19:02.608Z,100.00
2018-07-19T01:20:30.145Z,100.00
2018-07-19T01:22:01.395Z,100.00
2018-07-19T01:23:21.192Z,100.00
2018-07-19T01:24:48.252Z,100.00
2018-07-19T01:26:15.549Z,100.00
2018-07-19T01:27:42.895Z,100.00
2018-07-19T01:29:14.413Z,100.00
2018-07-19T01:30:41.610Z,100.00
2018-07-19T01:32:05.035Z,100.00
2018-07-19T01:33:32.363Z,100.00
2018-07-19T01:35:03.508Z,100.00
2018-07-19T01:36:26.734Z,100.00
2018-07-19T01:37:54.522Z,100.00
2018-07-19T01:39:25.928Z,100.00
2018-07-19T01:40:53.526Z,100.00
2018-07-19T01:42:16.798Z,100.00
2018-07-19T01:43:44.212Z,100.00
2018-07-19T01:45:11.776Z,100.00
2018-07-19T01:46:42.899Z,100.00
2018-07-19T01:48:06.441Z,100.00
2018-07-19T01:49:33.749Z,100.00
2018-07-19T01:51:05.033Z,100.00
2018-07-19T01:52:28.316Z,100.00
2018-07-19T01:53:59.559Z,100.00
2018-07-19T01:55:23.061Z,100.00
2018-07-19T01:56:50.382Z,100.00
2018-07-19T01:58:17.715Z,100.00
2018-07-19T01:59:44.702Z,100.00
2018-07-19T02:01:16.035Z,100.00
2018-07-19T02:02:39.464Z,100.00
2018-07-19T02:04:06.875Z,100.00
2018-07-19T02:05:38.571Z,100.00
2018-07-19T02:07:06.157Z,100.00
2018-07-19T02:08:33.469Z,100.00
2018-07-19T02:10:00.880Z,100.00
2018-07-19T02:11:24.101Z,100.00
2018-07-19T02:12:51.480Z,100.00
2018-07-19T02:14:18.994Z,100.00
2018-07-19T02:15:50.144Z,100.00
2018-07-19T02:17:17.654Z,100.00
2018-07-19T02:18:45.218Z,100.00
2018-07-19T02:20:08.664Z,100.00
2018-07-19T02:21:40.030Z,100.00
2018-07-19T02:23:03.166Z,100.00
2018-07-19T02:24:30.648Z,100.00
2018-07-19T02:25:57.982Z,100.00
2018-07-19T02:27:25.134Z,100.00
2018-07-19T02:28:56.585Z,100.00
2018-07-19T02:30:20.050Z,100.00
2018-07-19T02:31:47.362Z,100.00
2018-07-19T02:33:18.475Z,100.00
2018-07-19T02:34:41.506Z,100.00
2018-07-19T02:36:08.518Z,100.00
2018-07-19T02:37:35.903Z,100.00
2018-07-19T02:39:07.051Z,100.00
2018-07-19T02:40:30.046Z,100.00
2018-07-19T02:41:57.518Z,100.00
2018-07-19T02:43:25.040Z,100.00
2018-07-19T02:44:56.399Z,100.00
2018-07-19T02:46:19.757Z,100.00
2018-07-19T02:47:51.216Z,100.00
2018-07-19T02:49:18.670Z,100.00
2018-07-19T02:50:41.762Z,100.00
2018-07-19T02:52:09.123Z,100.00
2018-07-19T02:53:40.456Z,100.00
2018-07-19T02:55:03.839Z,100.00
2018-07-19T02:56:31.133Z,100.00
2018-07-19T02:58:02.576Z,100.00
2018-07-19T02:59:29.937Z,100.00
2018-07-19T03:00:53.519Z,100.00
2018-07-19T03:02:20.962Z,100.00
2018-07-19T03:03:52.267Z,100.00
2018-07-19T03:05:15.698Z,100.00
2018-07-19T03:06:42.570Z,100.00
2018-07-19T03:08:14.120Z,100.00
2018-07-19T03:09:37.415Z,100.00
2018-07-19T03:11:08.916Z,100.00
2018-07-19T03:12:32.323Z,100.00
2018-07-19T03:13:59.679Z,100.00
2018-07-19T03:15:30.900Z,100.00
2018-07-19T03:16:54.461Z,100.00
2018-07-19T03:18:21.773Z,100.00
2018-07-19T03:19:49.162Z,100.00
2018-07-19T03:21:20.165Z,100.00
2018-07-19T03:22:43.723Z,100.00
2018-07-19T03:24:10.854Z,100.00
2018-07-19T03:25:42.224Z,100.00
2018-07-19T03:27:05.598Z,100.00
2018-07-19T03:28:33.320Z,100.00
2018-07-19T03:30:04.271Z,100.00
2018-07-19T03:31:27.565Z,100.00
2018-07-19T03:32:55.068Z,100.00
2018-07-19T03:34:26.227Z,100.00
2018-07-19T03:35:49.806Z,100.00
2018-07-19T03:37:21.314Z,100.00
2018-07-19T03:38:44.609Z,100.00
2018-07-19T03:40:16.095Z,100.00
2018-07-19T03:41:39.363Z,100.00
2018-07-19T03:43:06.692Z,100.00
2018-07-19T03:44:38.296Z,100.00
2018-07-19T03:46:05.503Z,100.00
2018-07-19T03:47:28.697Z,100.00
2018-07-19T03:48:59.884Z,100.00
2018-07-19T03:50:27.216Z,100.00
2018-07-19T03:51:50.640Z,100.00
2018-07-19T03:53:18.122Z,100.00
2018-07-19T03:54:49.200Z,100.00
2018-07-19T03:56:12.864Z,100.00
2018-07-19T03:57:44.369Z,100.00
2018-07-19T03:59:11.347Z,100.00
2018-07-19T04:00:34.794Z,100.00
2018-07-19T04:02:02.197Z,100.00
2018-07-19T04:03:36.410Z,100.00
2018-07-19T04:04:56.684Z,100.00
2018-07-19T04:06:23.996Z,100.00
2018-07-19T04:07:51.327Z,100.00
2018-07-19T04:09:22.802Z,100.00
2018-07-19T04:10:50.204Z,100.00
2018-07-19T04:12:13.806Z,100.00
2018-07-19T04:13:41.216Z,100.00
2018-07-19T04:15:08.573Z,100.00
2018-07-19T04:16:35.914Z,100.00
2018-07-19T04:18:03.357Z,100.00
2018-07-19T04:19:30.423Z,100.00
2018-07-19T04:20:57.635Z,100.00
2018-07-19T04:22:24.595Z,100.00
2018-07-19T04:23:52.199Z,100.00
2018-07-19T04:25:19.573Z,100.00
2018-07-19T04:26:51.061Z,100.00
2018-07-19T04:28:18.065Z,100.00
2018-07-19T04:29:41.498Z,100.00
2018-07-19T04:31:13.017Z,100.00
2018-07-19T04:32:36.605Z,100.00
2018-07-19T04:34:07.995Z,100.00
2018-07-19T04:35:35.376Z,100.00
2018-07-19T04:36:58.944Z,100.00
2018-07-19T04:38:25.784Z,100.00
2018-07-19T04:39:53.032Z,100.00
2018-07-19T04:41:20.554Z,100.00
2018-07-19T04:42:48.251Z,100.00
2018-07-19T04:44:15.536Z,100.00
2018-07-19T04:45:43.073Z,100.00
2018-07-19T04:47:10.437Z,100.00
2018-07-19T04:48:37.527Z,100.00
2018-07-19T04:50:04.651Z,100.00
2018-07-19T04:51:35.880Z,100.00
2018-07-19T04:53:03.228Z,100.00
2018-07-19T04:54:26.527Z,100.00
2018-07-19T04:55:57.494Z,100.00
2018-07-19T04:57:21.090Z,100.00
2018-07-19T04:58:48.256Z,100.00
2018-07-19T05:00:15.190Z,100.00
2018-07-19T05:01:42.346Z,100.00
2018-07-19T05:03:13.420Z,100.00
2018-07-19T05:04:40.927Z,100.00
2018-07-19T05:06:04.362Z,100.00
2018-07-19T05:07:31.899Z,100.00
2018-07-19T05:08:59.041Z,100.00
2018-07-19T05:10:30.546Z,100.00
2018-07-19T05:11:57.494Z,100.00
2018-07-19T05:13:24.648Z,100.00
2018-07-19T05:14:47.774Z,100.00
2018-07-19T05:16:15.326Z,100.00
2018-07-19T05:17:42.973Z,100.00
2018-07-19T05:19:10.286Z,100.00
2018-07-19T05:20:37.899Z,100.00
2018-07-19T05:22:05.447Z,100.00
2018-07-19T05:23:36.810Z,100.00
2018-07-19T05:25:00.024Z,100.00
2018-07-19T05:26:27.422Z,100.00
2018-07-19T05:27:54.251Z,100.00
2018-07-19T05:29:25.367Z,100.00
2018-07-19T05:30:48.457Z,100.00
2018-07-19T05:32:19.746Z,100.00
2018-07-19T05:33:46.648Z,100.00
2018-07-19T05:35:13.697Z,100.00
2018-07-19T05:36:40.913Z,100.00
2018-07-19T05:38:08.464Z,100.00
2018-07-19T05:39:31.409Z,100.00
2018-07-19T05:41:02.830Z,100.00
2018-07-19T05:42:25.979Z,100.00
2018-07-19T05:43:53.526Z,100.00
2018-07-19T05:45:21.142Z,100.00
2018-07-19T05:46:48.309Z,100.00
2018-07-19T05:48:19.736Z,100.00
2018-07-19T05:49:47.220Z,100.00
2018-07-19T05:51:14.733Z,100.00
2018-07-19T05:52:38.259Z,100.00
2018-07-19T05:54:05.864Z,100.00
2018-07-19T05:55:37.319Z,100.00
2018-07-19T05:57:00.609Z,100.00
2018-07-19T05:58:32.265Z,100.00
2018-07-19T05:59:55.436Z,100.00
2018-07-19T06:01:22.710Z,100.00
2018-07-19T06:02:50.282Z,100.00
2018-07-19T06:04:17.730Z,100.00
2018-07-19T06:05:45.193Z,100.00
2018-07-19T06:07:16.665Z,100.00
2018-07-19T06:08:43.937Z,100.00
2018-07-19T06:10:11.354Z,100.00
2018-07-19T06:11:34.709Z,100.00
2018-07-19T06:13:02.245Z,100.00
2018-07-19T06:14:29.305Z,100.00
2018-07-19T06:15:56.884Z,100.00
2018-07-19T06:17:24.473Z,100.00
2018-07-19T06:18:55.948Z,100.00
2018-07-19T06:20:23.107Z,100.00
2018-07-19T06:21:46.767Z,100.00
2018-07-19T06:23:14.325Z,100.00
2018-07-19T06:24:41.363Z,100.00
2018-07-19T06:26:12.866Z,100.00
2018-07-19T06:27:40.197Z,100.00
2018-07-19T06:29:07.821Z,100.00
2018-07-19T06:30:30.822Z,100.00
2018-07-19T06:32:02.222Z,100.00
2018-07-19T06:33:29.681Z,100.00
2018-07-19T06:34:53.138Z,100.00
2018-07-19T06:36:24.505Z,100.00
2018-07-19T06:37:47.445Z,100.00
2018-07-19T06:39:18.887Z,100.00
2018-07-19T06:40:42.154Z,100.00
2018-07-19T06:42:09.605Z,100.00
2018-07-19T06:43:41.116Z,100.00
2018-07-19T06:45:04.594Z,100.00
2018-07-19T06:46:31.954Z,100.00
2018-07-19T06:47:59.542Z,100.00
2018-07-19T06:49:27.122Z,100.00
2018-07-19T06:50:58.618Z,100.00
2018-07-19T06:52:22.233Z,100.00
2018-07-19T06:53:53.942Z,100.00
2018-07-19T06:55:17.335Z,100.00
2018-07-19T06:56:44.648Z,100.00
2018-07-19T06:58:12.456Z,100.00
2018-07-19T06:59:40.040Z,100.00
2018-07-19T07:01:07.424Z,100.00
2018-07-19T07:02:34.957Z,100.00
2018-07-19T07:04:02.596Z,100.00
2018-07-19T07:05:34.237Z,100.00
2018-07-19T07:07:01.847Z,100.00
2018-07-19T07:08:24.479Z,100.00
2018-07-19T07:09:52.011Z,100.00
2018-07-19T07:11:19.460Z,100.00
2018-07-19T07:12:51.028Z,100.00
2018-07-19T07:14:18.274Z,100.00
2018-07-19T07:15:41.866Z,100.00
2018-07-19T07:17:13.348Z,100.00
2018-07-19T07:18:36.644Z,100.00
2018-07-19T07:20:04.019Z,100.00
2018-07-19T07:21:31.571Z,100.00
2018-07-19T07:22:58.979Z,100.00
2018-07-19T07:24:26.463Z,100.00
2018-07-19T07:25:58.003Z,100.00
2018-07-19T07:27:21.673Z,100.00
2018-07-19T07:28:49.145Z,100.00
2018-07-19T07:30:20.824Z,100.00
2018-07-19T07:31:44.304Z,100.00
2018-07-19T07:33:11.875Z,100.00
2018-07-19T07:34:39.570Z,100.00
2018-07-19T07:36:06.935Z,100.00
2018-07-19T07:37:37.835Z,100.00
2018-07-19T07:39:01.263Z,100.00
2018-07-19T07:40:28.863Z,100.00
2018-07-19T07:41:56.323Z,100.00
2018-07-19T07:43:23.946Z,100.00
2018-07-19T07:44:50.894Z,100.00
2018-07-19T07:46:18.384Z,100.00
2018-07-19T07:47:45.953Z,100.00
2018-07-19T07:49:13.600Z,100.00
2018-07-19T07:50:41.220Z,100.00
2018-07-19T07:52:08.986Z,100.00
2018-07-19T07:53:36.564Z,100.00
2018-07-19T07:55:04.131Z,100.00
2018-07-19T07:56:31.661Z,100.00
2018-07-19T07:58:03.275Z,100.00
2018-07-19T07:59:26.757Z,100.00
2018-07-19T08:00:54.019Z,100.00
2018-07-19T08:02:21.269Z,100.00
2018-07-19T08:03:48.895Z,100.00
2018-07-19T08:05:20.309Z,99.88
2018-07-19T08:06:43.600Z,100.00
2018-07-19T08:08:11.220Z,100.00
2018-07-19T08:09:42.788Z,100.00
2018-07-19T08:11:06.274Z,100.00
2018-07-19T08:12:33.772Z,100.00
2018-07-19T08:14:05.109Z,100.00
2018-07-19T08:15:32.464Z,100.00
2018-07-19T08:17:00.193Z,100.00
2018-07-19T08:18:23.603Z,100.00
2018-07-19T08:19:51.224Z,100.00
2018-07-19T08:21:18.934Z,100.00
2018-07-19T08:22:46.553Z,100.00
2018-07-19T08:24:14.119Z,100.00
2018-07-19T08:25:45.506Z,100.00
2018-07-19T08:27:12.878Z,100.00
2018-07-19T08:28:36.217Z,100.00
2018-07-19T08:30:03.733Z,100.00
2018-07-19T08:31:31.259Z,100.00
2018-07-19T08:32:58.775Z,100.00
2018-07-19T08:34:25.789Z,100.00
2018-07-19T08:35:53.431Z,100.00
2018-07-19T08:37:24.848Z,100.00
2018-07-19T08:38:52.381Z,100.00
2018-07-19T08:40:19.948Z,100.00
2018-07-19T08:41:47.537Z,100.00
2018-07-19T08:43:10.994Z,99.96
2018-07-19T08:44:38.274Z,100.00
2018-07-19T08:46:05.849Z,100.00
2018-07-19T08:47:37.332Z,100.00
2018-07-19T08:49:04.704Z,100.00
2018-07-19T08:50:32.370Z,100.00
2018-07-19T08:51:55.759Z,99.09
2018-07-19T08:53:26.890Z,100.00
2018-07-19T08:54:54.223Z,96.11
2018-07-19T08:57:49.428Z,91.00
2018-07-19T08:59:16.988Z,93.42
2018-07-19T09:00:40.284Z,93.94
2018-07-19T09:02:07.738Z,94.74
2018-07-19T09:03:35.313Z,93.13
2018-07-19T09:05:02.827Z,92.56
2018-07-19T09:06:30.290Z,95.70
2018-07-19T09:07:57.815Z,89.03
2018-07-19T09:09:25.461Z,93.84
2018-07-19T09:10:53.092Z,87.90
2018-07-19T09:12:24.134Z,89.32
2018-07-19T09:13:47.813Z,92.98
2018-07-19T09:15:15.584Z,93.45
2018-07-19T09:16:47.243Z,88.92
2018-07-19T09:18:14.834Z,86.27
2018-07-19T09:19:38.589Z,83.71
2018-07-19T09:21:09.942Z,85.28
2018-07-19T09:22:33.482Z,85.39
2018-07-19T09:24:04.998Z,83.88
2018-07-19T09:25:28.488Z,80.11
2018-07-19T09:26:55.767Z,82.83
2018-07-19T09:28:23.311Z,81.17
2018-07-19T09:29:50.964Z,82.70
2018-07-19T09:31:18.246Z,82.21
2018-07-19T09:32:49.726Z,79.11
2018-07-19T09:34:13.460Z,83.66
2018-07-19T09:35:45.060Z,80.97
2018-07-19T09:37:12.712Z,76.38
2018-07-19T09:38:36.362Z,83.46
2018-07-19T09:40:03.635Z,84.13
2018-07-19T09:41:31.149Z,84.03
2018-07-19T09:42:58.568Z,85.87
2018-07-19T09:44:30.132Z,86.63
2018-07-19T09:45:53.555Z,84.66
2018-07-19T09:47:24.717Z,78.75
2018-07-19T09:48:47.735Z,75.07
2018-07-19T09:50:15.217Z,79.07
2018-07-19T09:51:46.446Z,76.20
2018-07-19T09:53:10.090Z,75.51
2018-07-19T09:54:37.685Z,76.58
2018-07-19T09:56:04.979Z,77.52
2018-07-19T09:57:36.633Z,75.31
2018-07-19T09:59:03.972Z,71.88
2018-07-19T10:00:27.479Z,80.11
2018-07-19T10:01:54.887Z,77.16
2018-07-19T10:03:22.473Z,77.78
2018-07-19T10:04:50.039Z,78.30
2018-07-19T10:06:21.453Z,76.83
2018-07-19T10:07:49.224Z,80.64
2018-07-19T10:09:12.813Z,77.64
2018-07-19T10:10:44.330Z,78.04
2018-07-19T10:12:07.701Z,76.03
2018-07-19T10:13:39.299Z,74.75
2018-07-19T10:15:02.841Z,74.23
2018-07-19T10:16:34.417Z,76.45
2018-07-19T10:17:57.972Z,79.83
2018-07-19T10:19:25.302Z,83.57
2018-07-19T10:20:52.966Z,77.33
2018-07-19T10:22:19.933Z,78.30
2018-07-19T10:23:47.097Z,80.14
2018-07-19T10:25:18.425Z,80.32
2018-07-19T10:26:41.850Z,79.26
2018-07-19T10:28:13.489Z,77.71
2018-07-19T10:29:37.027Z,75.42
2018-07-19T10:31:08.305Z,68.94
2018-07-19T10:32:31.894Z,71.49
2018-07-19T10:33:59.105Z,71.91
2018-07-19T10:35:26.348Z,72.78
2018-07-19T10:36:54.087Z,72.26
2018-07-19T10:38:21.094Z,70.94
2018-07-19T10:39:52.603Z,73.84
2018-07-19T10:41:19.688Z,74.49
2018-07-19T10:42:43.173Z,76.63
2018-07-19T10:44:10.737Z,79.61
2018-07-19T10:45:37.486Z,78.75
2018-07-19T10:47:05.106Z,72.55
2018-07-19T10:48:36.386Z,74.20
2018-07-19T10:49:59.824Z,73.49
2018-07-19T10:51:26.984Z,69.27
2018-07-19T10:52:53.973Z,72.95
2018-07-19T10:54:21.711Z,65.39
2018-07-19T10:55:48.741Z,69.24
2018-07-19T10:57:20.069Z,69.63
2018-07-19T10:58:43.466Z,70.43
2018-07-19T11:00:14.641Z,68.18
2018-07-19T11:01:42.222Z,63.33
2018-07-19T11:03:05.552Z,66.08
2018-07-19T11:04:32.521Z,68.08
2018-07-19T11:05:59.950Z,69.29
2018-07-19T11:07:31.509Z,66.75
2018-07-19T11:08:58.863Z,64.63
2018-07-19T11:10:22.570Z,62.34
2018-07-19T11:11:50.184Z,61.94
2018-07-19T11:13:16.945Z,59.29
2018-07-19T11:14:44.253Z,62.41
2018-07-19T11:16:15.910Z,60.65
2018-07-19T11:17:43.348Z,58.83
2018-07-19T11:19:10.600Z,62.47
2018-07-19T11:20:38.285Z,62.68
2018-07-19T11:22:01.279Z,61.68
2018-07-19T11:23:28.166Z,61.45
2018-07-19T11:24:55.688Z,61.88
2018-07-19T11:26:23.266Z,59.01
2018-07-19T11:27:54.851Z,57.03
2018-07-19T11:29:18.432Z,55.06
2018-07-19T11:30:49.799Z,55.88
2018-07-19T11:32:13.063Z,54.11
2018-07-19T11:33:40.475Z,52.75
2018-07-19T11:35:08.093Z,50.24
2018-07-19T11:36:34.877Z,49.83
2018-07-19T11:38:06.236Z,49.42
2018-07-19T11:39:29.442Z,48.36
2018-07-19T11:41:00.800Z,46.81
2018-07-19T11:42:28.208Z,47.59
2018-07-19T11:43:51.077Z,48.70
2018-07-19T11:45:22.611Z,45.14
2018-07-19T11:46:45.849Z,48.23
2018-07-19T11:48:17.353Z,46.29
2018-07-19T11:49:44.686Z,47.65
2018-07-19T11:51:07.919Z,47.83
2018-07-19T11:52:35.221Z,48.63
2018-07-19T11:54:06.861Z,47.10
2018-07-19T11:55:30.165Z,48.35
2018-07-19T11:56:57.314Z,46.76
2018-07-19T11:58:25.033Z,46.56
2018-07-19T11:59:52.682Z,48.01
2018-07-19T12:01:19.899Z,51.36
2018-07-19T12:02:47.530Z,47.04
2018-07-19T12:04:15.260Z,48.08
2018-07-19T12:05:42.554Z,46.71
2018-07-19T12:07:13.877Z,48.07
2018-07-19T12:08:37.601Z,45.77
2018-07-19T12:10:05.226Z,45.73
2018-07-19T12:11:32.529Z,45.89
2018-07-19T12:13:00.062Z,44.86
2018-07-19T12:14:27.649Z,47.09
2018-07-19T12:15:55.009Z,46.38
2018-07-19T12:17:22.390Z,47.85
2018-07-19T12:18:54.147Z,46.50
2018-07-19T12:20:17.235Z,46.85
2018-07-19T12:21:48.940Z,46.28
2018-07-19T12:23:12.512Z,44.62
2018-07-19T12:24:39.758Z,44.89
2018-07-19T12:26:07.175Z,44.17
2018-07-19T12:27:34.629Z,44.79
2018-07-19T12:29:02.074Z,44.82
2018-07-19T12:30:29.637Z,45.14
2018-07-19T12:31:56.996Z,45.25
2018-07-19T12:33:24.024Z,45.09
2018-07-19T12:34:55.656Z,46.62
2018-07-19T12:36:23.371Z,44.87
2018-07-19T12:37:46.945Z,44.92
2018-07-19T12:39:14.603Z,45.24
2018-07-19T12:40:46.137Z,45.05
2018-07-19T12:42:09.660Z,46.73
2018-07-19T12:43:37.344Z,46.78
2018-07-19T12:45:05.042Z,47.24
2018-07-19T12:46:32.491Z,45.73
2018-07-19T12:48:00.018Z,44.10
2018-07-19T12:49:27.613Z,44.70
2018-07-19T12:50:55.282Z,45.13
2018-07-19T12:52:22.472Z,43.27
2018-07-19T12:53:50.151Z,43.21
2018-07-19T12:55:21.555Z,45.01
2018-07-19T12:56:45.333Z,43.56
2018-07-19T12:58:17.020Z,44.19
2018-07-19T12:59:40.782Z,43.67
2018-07-19T13:01:12.386Z,45.22
2018-07-19T13:02:35.545Z,43.73
2018-07-19T13:04:02.568Z,43.99
2018-07-19T13:05:29.543Z,44.94
2018-07-19T13:06:56.811Z,46.30
2018-07-19T13:08:24.348Z,46.76
2018-07-19T13:09:56.067Z,46.81
2018-07-19T13:11:19.761Z,50.15
2018-07-19T13:12:47.414Z,52.06
2018-07-19T13:14:15.119Z,50.38
2018-07-19T13:15:42.550Z,49.13
2018-07-19T13:17:10.262Z,51.70
2018-07-19T13:18:41.759Z,51.14
2018-07-19T13:20:05.488Z,51.78
2018-07-19T13:21:32.745Z,51.12
2018-07-19T13:23:00.358Z,52.30
2018-07-19T13:24:31.718Z,50.45
2018-07-19T13:25:54.949Z,51.90
2018-07-19T13:27:26.129Z,52.08
2018-07-19T13:28:49.662Z,53.23
2018-07-19T13:30:17.414Z,54.30
2018-07-19T13:31:48.974Z,57.66
2018-07-19T13:33:16.429Z,60.23
2018-07-19T13:34:39.918Z,59.35
2018-07-19T13:36:07.624Z,58.49
2018-07-19T13:37:34.983Z,57.66
2018-07-19T13:39:02.515Z,58.51
2018-07-19T13:40:30.199Z,61.35
2018-07-19T13:41:57.242Z,64.85
2018-07-19T13:43:25.033Z,62.98
2018-07-19T13:44:52.592Z,62.85
2018-07-19T13:46:20.249Z,64.14
2018-07-19T13:47:47.925Z,66.96
2018-07-19T13:49:15.104Z,67.05
2018-07-19T13:50:46.830Z,68.26
2018-07-19T13:52:10.488Z,65.51
2018-07-19T13:53:37.970Z,66.34
2018-07-19T13:55:05.563Z,67.56
2018-07-19T13:56:36.961Z,76.88
2018-07-19T13:57:59.740Z,70.93
2018-07-19T13:59:27.286Z,72.84
2018-07-19T14:00:54.987Z,73.09
2018-07-19T14:02:22.571Z,70.21
2018-07-19T14:03:54.011Z,72.59
2018-07-19T14:05:17.506Z,69.54
2018-07-19T14:06:49.050Z,72.94
2018-07-19T14:08:16.601Z,75.81
2018-07-19T14:09:44.234Z,72.49
2018-07-19T14:11:07.718Z,74.94
2018-07-19T14:12:35.485Z,75.95
2018-07-19T14:14:06.909Z,80.27
2018-07-19T14:15:30.475Z,80.32
2018-07-19T14:16:58.035Z,80.36
2018-07-19T14:18:25.488Z,81.21
2018-07-19T14:19:56.880Z,79.52
2018-07-19T14:21:24.084Z,78.28
2018-07-19T14:22:47.537Z,79.24
2018-07-19T14:24:18.827Z,78.81
2018-07-19T14:25:42.579Z,78.94
2018-07-19T14:27:19.759Z,74.54
2018-07-19T14:28:47.240Z,80.36
2018-07-19T14:30:15.052Z,77.65
2018-07-19T14:31:46.320Z,79.82
2018-07-19T14:33:09.895Z,79.28
2018-07-19T14:34:41.389Z,84.01
2018-07-19T14:36:04.695Z,80.96
2018-07-19T14:37:36.399Z,78.29
2018-07-19T14:38:59.980Z,80.85
2018-07-19T14:40:31.184Z,77.91
2018-07-19T14:41:58.434Z,79.09
2018-07-19T14:43:25.903Z,80.71
2018-07-19T14:44:53.603Z,81.42
2018-07-19T14:46:21.181Z,78.58
2018-07-19T14:47:44.937Z,79.70
2018-07-19T14:49:12.509Z,83.11
2018-07-19T14:50:40.118Z,82.69
2018-07-19T14:52:07.674Z,80.60
2018-07-19T14:53:35.304Z,83.44
2018-07-19T14:55:02.886Z,83.96
2018-07-19T14:56:34.537Z,82.63
2018-07-19T14:57:58.135Z,81.64
2018-07-19T14:59:29.584Z,80.25
2018-07-19T15:00:53.288Z,84.21
2018-07-19T15:02:24.582Z,87.03
2018-07-19T15:03:48.171Z,83.91
2018-07-19T15:05:15.193Z,81.00
2018-07-19T15:06:42.500Z,83.66
2018-07-19T15:08:10.049Z,88.22
2018-07-19T15:09:37.512Z,83.82
2018-07-19T15:11:05.008Z,84.01
2018-07-19T15:12:36.664Z,87.75
2018-07-19T15:14:00.196Z,86.79
2018-07-19T15:15:27.836Z,87.45
2018-07-19T15:16:59.622Z,85.75
2018-07-19T15:18:23.153Z,85.58
2018-07-19T15:19:50.630Z,88.51
2018-07-19T15:21:18.141Z,87.33
2018-07-19T15:22:45.875Z,86.81
2018-07-19T15:24:13.394Z,88.19
2018-07-19T15:25:45.029Z,84.45
2018-07-19T15:27:12.516Z,85.52
2018-07-19T15:28:36.090Z,86.05
2018-07-19T15:30:03.650Z,86.48
2018-07-19T15:31:31.112Z,84.65
2018-07-19T15:32:58.656Z,84.33
2018-07-19T15:34:30.174Z,88.90
2018-07-19T15:35:53.780Z,84.89
2018-07-19T15:37:21.095Z,80.73
2018-07-19T15:38:52.439Z,84.60
2018-07-19T15:40:16.014Z,84.70
2018-07-19T15:41:43.590Z,80.26
2018-07-19T15:43:15.165Z,86.44
2018-07-19T15:44:38.431Z,82.56
2018-07-19T15:46:06.089Z,85.15
2018-07-19T15:47:33.605Z,84.14
2018-07-19T15:49:05.246Z,84.01
2018-07-19T15:50:28.459Z,81.91
2018-07-19T15:51:59.928Z,84.52
2018-07-19T15:53:23.302Z,82.14
2018-07-19T15:54:50.386Z,83.83
2018-07-19T15:56:18.161Z,85.21
2018-07-19T15:57:45.789Z,84.68
2018-07-19T15:59:13.416Z,89.53
2018-07-19T16:00:40.823Z,84.89
2018-07-19T16:02:12.391Z,83.36
2018-07-19T16:03:35.322Z,85.48
2018-07-19T16:05:03.061Z,85.25
2018-07-19T16:06:34.588Z,83.90
2018-07-19T16:07:58.026Z,82.60
2018-07-19T16:09:25.637Z,82.53
2018-07-19T16:10:53.009Z,85.79
2018-07-19T16:12:20.448Z,81.53
2018-07-19T16:13:48.085Z,80.51
2018-07-19T16:15:15.474Z,84.13
2018-07-19T16:16:47.086Z,84.86
2018-07-19T16:18:10.408Z,83.79
2018-07-19T16:19:38.042Z,83.51
2018-07-19T16:21:09.575Z,82.62
2018-07-19T16:22:33.007Z,82.66
2018-07-19T16:24:00.667Z,81.30
2018-07-19T16:25:32.086Z,81.28
2018-07-19T16:26:54.956Z,84.04
2018-07-19T16:28:26.497Z,83.54
2018-07-19T16:29:49.551Z,83.57
2018-07-19T16:31:21.109Z,81.39
2018-07-19T16:32:44.695Z,83.06
2018-07-19T16:34:16.346Z,82.04
2018-07-19T16:35:39.904Z,80.82
2018-07-19T16:37:07.207Z,83.54
2018-07-19T16:38:34.647Z,80.46
2018-07-19T16:40:02.183Z,83.18
2018-07-19T16:41:29.481Z,81.66
2018-07-19T16:43:01.115Z,82.53
2018-07-19T16:44:24.248Z,82.88
2018-07-19T16:45:51.995Z,84.78
2018-07-19T16:47:19.559Z,85.04
2018-07-19T16:48:47.208Z,81.42
2018-07-19T16:50:14.859Z,81.83
2018-07-19T16:51:42.454Z,86.17
2018-07-19T16:53:13.955Z,82.89
2018-07-19T16:54:41.278Z,85.28
2018-07-19T16:56:04.914Z,82.90
2018-07-19T16:57:32.309Z,84.54
2018-07-19T16:59:03.855Z,81.81
2018-07-19T17:00:27.373Z,83.91
2018-07-19T17:01:55.100Z,82.88
2018-07-19T17:03:22.561Z,84.53
2018-07-19T17:04:50.119Z,84.01
2018-07-19T17:06:17.673Z,80.55
2018-07-19T17:07:49.333Z,80.55
2018-07-19T17:09:12.613Z,80.29
2018-07-19T17:10:40.018Z,79.56
2018-07-19T17:12:07.752Z,82.55
2018-07-19T17:13:35.256Z,84.08
2018-07-19T17:15:02.868Z,81.41
2018-07-19T17:16:30.365Z,82.24
2018-07-19T17:17:57.755Z,81.15
2018-07-19T17:19:25.320Z,80.81
2018-07-19T17:20:52.873Z,80.77
2018-07-19T17:22:20.566Z,82.39
2018-07-19T17:23:47.962Z,80.09
2018-07-19T17:25:15.629Z,79.87
2018-07-19T17:26:43.256Z,82.89
2018-07-19T17:28:10.867Z,82.04
2018-07-19T17:29:42.399Z,83.31
2018-07-19T17:31:09.855Z,82.29
2018-07-19T17:32:33.394Z,80.24
2018-07-19T17:34:04.607Z,82.50
2018-07-19T17:35:28.208Z,82.09
2018-07-19T17:36:55.670Z,83.90
2018-07-19T17:38:27.227Z,83.15
2018-07-19T17:39:50.637Z,83.60
2018-07-19T17:41:18.071Z,78.99
2018-07-19T17:42:49.521Z,80.52
2018-07-19T17:44:13.218Z,81.60
2018-07-19T17:45:40.797Z,83.18
2018-07-19T17:47:08.394Z,82.78
2018-07-19T17:48:35.951Z,79.39
2018-07-19T17:50:03.588Z,81.55
2018-07-19T17:51:30.992Z,84.47
2018-07-19T17:52:58.479Z,83.61
2018-07-19T17:54:26.097Z,83.68
2018-07-19T17:55:53.372Z,81.82
2018-07-19T17:57:24.645Z,78.33
2018-07-19T17:58:52.059Z,78.78
2018-07-19T18:00:15.686Z,79.56
2018-07-19T18:01:42.831Z,76.43
2018-07-19T18:03:10.229Z,80.51
2018-07-19T18:04:37.916Z,77.25
2018-07-19T18:06:05.536Z,79.90
2018-07-19T18:07:36.880Z,78.66
2018-07-19T18:09:00.272Z,79.99
2018-07-19T18:10:31.830Z,81.17
2018-07-19T18:11:59.208Z,81.50
2018-07-19T18:13:22.698Z,78.63
2018-07-19T18:14:50.203Z,78.95
2018-07-19T18:16:17.783Z,83.62
2018-07-19T18:17:45.356Z,79.89
2018-07-19T18:19:16.773Z,79.06
2018-07-19T18:20:40.578Z,78.09
2018-07-19T18:22:08.014Z,80.00
2018-07-19T18:23:35.500Z,79.44
2018-07-19T18:25:03.028Z,79.78
2018-07-19T18:26:30.439Z,77.96
2018-07-19T18:28:01.705Z,80.35
2018-07-19T18:29:25.160Z,79.88